Webcam 1 more information Webcam 1


Webcam 2 more information Webcam 2


altri nostri siti meteo:

Pomeziameteo 1Sito sul meteo

Pomeziameteo DashboardSito sul meteo

Caput FrigorisSito sul meteo

BarcellonameteoSito sul meteo

MeteoipassiSito sul meteo

ViterbometeoSito sul meteo

MeteotortoretoSito sul meteo

Stazione LineameteoSito sul meteo



Nessuna attenzione particolare richiesta.    Non ci sono allerte meteo

Weather Underground Storia pagina Testo

Quotidiano Riepilogo per novembre 17, 2018 Unita:  Metrico    Inglese   Entrambi
« Indietro Day
Avanti Day »
Quotidiano Settimanale mensile Annuale Personalizzato
  Attuale: Max: Min: Media:
Temperatura: 9.7 °C -17.8 °C 9.2 °C 9.2 °C
P.to Rugiada: -2.9 °C -17.8 °C -4.1 °C -1.9 °C
Umidita: 41 % Humidity % 37 % 45 %
Vel. Vento: 8 km/h 0 km/h 0 km/h 6.9 km/h
Raffiche: 9.7 km/h 0 km/h - -
Vento:West - - WSW
Pressione: 1018.5 hPa 0 hPa 1018.5 hPa -
Precipitazioni: 0 mm      
Historical Graphs
 
 
Dati di tabella per il novembre 17, 2018
Tempo Temperatura P.to Rugiada Pressione Vento Vel. Vento Raffiche Umidita Tasso delle precipitazioni (oraria)
-17.8 °C -17.8 °C 0 hPa Calm     Humidity % 0 mm
00:00 9.9 °C -4.1 °C 1021.6 hPa SW 12.9 km/h 20.9 km/h 37 % 0 mm
00:05 10 °C -4.1 °C 1020.5 hPa West 11.3 km/h 16.1 km/h 37 % 0 mm
00:10 10 °C -4.1 °C 1020.5 hPa WSW 9.7 km/h 12.9 km/h 37 % 0 mm
00:15 10 °C -4.1 °C 1020.5 hPa WSW 8 km/h 11.3 km/h 37 % 0 mm
00:20 10 °C -4.1 °C 1020.5 hPa WSW 6.4 km/h 16.1 km/h 37 % 0 mm
00:25 10 °C -4.1 °C 1020.5 hPa WSW 8 km/h 12.9 km/h 37 % 0 mm
00:30 9.9 °C -4.1 °C 1020.5 hPa WSW 12.9 km/h 16.1 km/h 37 % 0 mm
00:35 9.9 °C -4.1 °C 1020.5 hPa SW 9.7 km/h 12.9 km/h 37 % 0 mm
00:40 9.9 °C -4.1 °C 1020.5 hPa SW 8 km/h 12.9 km/h 37 % 0 mm
00:45 9.9 °C -4.1 °C 1020.5 hPa West 11.3 km/h 12.9 km/h 37 % 0 mm
00:50 9.8 °C -3.9 °C 1020.5 hPa SW 6.4 km/h 12.9 km/h 38 % 0 mm
00:55 9.8 °C -3.9 °C 1020.5 hPa WSW 8 km/h 11.3 km/h 38 % 0 mm
01:00 9.7 °C -3.9 °C 1020.5 hPa West 6.4 km/h 12.9 km/h 38 % 0 mm
01:05 9.7 °C -3.9 °C 1020.5 hPa WSW 6.4 km/h 12.9 km/h 38 % 0 mm
01:10 9.7 °C -3.9 °C 1020.5 hPa SW 11.3 km/h 14.5 km/h 38 % 0 mm
01:15 9.8 °C -3.9 °C 1020.5 hPa West 6.4 km/h 12.9 km/h 38 % 0 mm
01:20 9.9 °C -4.1 °C 1020.5 hPa WSW 3.2 km/h 11.3 km/h 37 % 0 mm
01:30 10 °C -4.1 °C 1020.5 hPa WSW 9.7 km/h 12.9 km/h 37 % 0 mm
01:35 10.1 °C -3.9 °C 1020.5 hPa WSW 6.4 km/h 12.9 km/h 37 % 0 mm
01:40 10.1 °C -3.9 °C 1020.5 hPa SW 8 km/h 11.3 km/h 37 % 0 mm
01:45 10.1 °C -3.9 °C 1020.5 hPa SW 9.7 km/h 11.3 km/h 37 % 0 mm
01:50 9.9 °C -4.1 °C 1020.5 hPa SW 4.8 km/h 12.9 km/h 37 % 0 mm
01:55 9.7 °C -3.9 °C 1020.5 hPa SSW 6.4 km/h 8 km/h 38 % 0 mm
02:00 9.6 °C -3.7 °C 1020.5 hPa SW 4.8 km/h 6.4 km/h 39 % 0 mm
02:05 9.6 °C -3.4 °C 1020.5 hPa SW 4.8 km/h 8 km/h 40 % 0 mm
02:10 9.5 °C -2.8 °C 1020.5 hPa Calm   6.4 km/h 42 % 0 mm
02:15 9.5 °C -1.6 °C 1020.5 hPa NW 3.2 km/h 4.8 km/h 46 % 0 mm
02:20 9.4 °C -0.5 °C 1020.5 hPa NW 4.8 km/h 6.4 km/h 50 % 0 mm
02:25 9.4 °C -0.3 °C 1020.5 hPa WNW 3.2 km/h 6.4 km/h 51 % 0 mm
02:30 9.3 °C -0.1 °C 1020.5 hPa WNW 3.2 km/h 4.8 km/h 52 % 0 mm
02:35 9.3 °C 0.4 °C 1020.5 hPa North 3.2 km/h 6.4 km/h 54 % 0 mm
02:40 9.3 °C 0.4 °C 1020.5 hPa Calm   4.8 km/h 54 % 0 mm
02:45 9.3 °C 0.4 °C 1020.5 hPa Calm     54 % 0 mm
02:50 9.3 °C 0.4 °C 1020.5 hPa Calm     54 % 0 mm
02:55 9.2 °C 0.3 °C 1020.5 hPa SW 4.8 km/h 6.4 km/h 54 % 0 mm
03:00 9.2 °C 1.1 °C 1020.5 hPa WSW 4.8 km/h 6.4 km/h 57 % 0 mm
03:05 9.2 °C 1.6 °C 1020.5 hPa WSW 6.4 km/h 8 km/h 59 % 0 mm
03:10 9.3 °C 1.2 °C 1020.5 hPa WSW 8 km/h 9.7 km/h 57 % 0 mm
03:15 9.4 °C 1.1 °C 1020.5 hPa West 4.8 km/h 8 km/h 56 % 0 mm
03:20 9.4 °C 0.6 °C 1020.5 hPa West 6.4 km/h 8 km/h 54 % 0 mm
03:25 9.5 °C 0.6 °C 1020.5 hPa WSW 3.2 km/h 9.7 km/h 54 % 0 mm
03:30 9.6 °C 0.4 °C 1020.5 hPa WSW 3.2 km/h 9.7 km/h 53 % 0 mm
03:35 9.7 °C 0.3 °C 1019.5 hPa WSW 6.4 km/h 9.7 km/h 52 % 0 mm
03:40 9.7 °C 0.3 °C 1019.5 hPa WSW 4.8 km/h 9.7 km/h 52 % 0 mm
03:45 9.6 °C -0.1 °C 1019.5 hPa SSW 4.8 km/h 8 km/h 51 % 0 mm
03:50 9.4 °C 0.6 °C 1020.5 hPa Calm   8 km/h 54 % 0 mm
03:55 9.3 °C 0.4 °C 1020.5 hPa SW 8 km/h 9.7 km/h 54 % 0 mm
04:00 9.3 °C 1.2 °C 1020.5 hPa West 6.4 km/h 9.7 km/h 57 % 0 mm
04:05 9.3 °C 1.2 °C 1019.5 hPa WSW 6.4 km/h 11.3 km/h 57 % 0 mm
04:10 9.3 °C 1.2 °C 1019.5 hPa West 4.8 km/h 8 km/h 57 % 0 mm
04:15 9.3 °C 1.2 °C 1019.5 hPa WSW 8 km/h 9.7 km/h 57 % 0 mm
04:20 9.3 °C 0.7 °C 1019.5 hPa West 6.4 km/h 12.9 km/h 55 % 0 mm
04:25 9.3 °C 0.4 °C 1019.5 hPa SW 8 km/h 11.3 km/h 54 % 0 mm
04:30 9.4 °C 0.3 °C 1019.5 hPa West 4.8 km/h 12.9 km/h 53 % 0 mm
04:35 9.4 °C -0.3 °C 1019.5 hPa WSW 6.4 km/h 9.7 km/h 51 % 0 mm
04:40 9.4 °C -0.5 °C 1019.5 hPa WSW 6.4 km/h 11.3 km/h 50 % 0 mm
04:45 9.4 °C -1.1 °C 1019.5 hPa West 11.3 km/h 12.9 km/h 48 % 0 mm
04:50 9.4 °C -1.1 °C 1019.5 hPa West 6.4 km/h 11.3 km/h 48 % 0 mm
04:55 9.4 °C -1.1 °C 1019.5 hPa SSW 9.7 km/h 11.3 km/h 48 % 0 mm
05:00 9.5 °C -1.3 °C 1019.5 hPa SW 11.3 km/h 12.9 km/h 47 % 0 mm
05:05 9.6 °C -1.5 °C 1019.5 hPa West 9.7 km/h 12.9 km/h 46 % 0 mm
05:10 9.6 °C -2.1 °C 1019.5 hPa WSW 11.3 km/h 16.1 km/h 44 % 0 mm
05:15 9.6 °C -2.7 °C 1019.5 hPa West 11.3 km/h 12.9 km/h 42 % 0 mm
05:20 9.7 °C -2.9 °C 1019.5 hPa WSW 9.7 km/h 12.9 km/h 41 % 0 mm
05:25 9.8 °C -2.8 °C 1019.5 hPa WSW 4.8 km/h 12.9 km/h 41 % 0 mm
05:30 9.7 °C -2.9 °C 1019.5 hPa SW 6.4 km/h 11.3 km/h 41 % 0 mm
05:35 9.4 °C -2.3 °C 1019.5 hPa WSW 11.3 km/h 16.1 km/h 44 % 0 mm
05:40 9.4 °C -1.9 °C 1019.5 hPa SW 11.3 km/h 16.1 km/h 45 % 0 mm
05:45 9.5 °C -2.2 °C 1019.5 hPa WSW 11.3 km/h 16.1 km/h 44 % 0 mm
05:50 9.6 °C -2.4 °C 1019.5 hPa SW 14.5 km/h 19.3 km/h 43 % 0 mm
05:55 9.6 °C -2.4 °C 1019.5 hPa WSW 12.9 km/h 19.3 km/h 43 % 0 mm
06:00 9.6 °C -2.7 °C 1019.5 hPa West 11.3 km/h 16.1 km/h 42 % 0 mm
06:05 9.6 °C -2.7 °C 1018.5 hPa West 9.7 km/h 16.1 km/h 42 % 0 mm
06:10 9.7 °C -2.9 °C 1018.5 hPa West 8 km/h 9.7 km/h 41 % 0 mm
Stazione meteorologica di Castelnuovo Vomano (TE)
complimenti di Weather Underground - 2.75 mb

Script sviluppato da  Jim McMurry - jmcmurry@mwt.net Adattato per il modello da  Wim van der Kuil - Leuven-Template.eu

Potete trovare le nostre info meteo anche a:

Weather Underground

AWEKAS

Citizen Weather Observer Program (CWOP)

HAMweather, WeatherForYou, PWS Weather

Strumentazione usata:

Stazione meteo
Oregon 928

Programma gestore dati meteo
WVIEW

Server per i dati meteo
Pc-WDS5

Oregon 928

WVIEW

Pc-WDS5